PWSweather.com
Personal Weather Stations
Station Observations
IMAZOWIE6
WarszawaPL

WarszawaPL

Lat: 52.27957, Lon: 21.05489

Elevation: 100

Station Type: WS1080

http://stacjapogody.waw.pl/

Latest ConditionsUpdated 3:01:38 PM GMT+01:01 Thursday, Nov 14, 2019
Currently Today's Max Today's Min Today's Average
Temperature 43.7°F6.5°C 55.2°F12.9°C 41.9°F5.5°C 46.1°F7.8°C
Dew Point -168.4°F-111.3°C -167.3°F-110.7°C -168.6°F-111.4°C -168.2°F-111.2°C
Winds Calm Calm Calm -Calm - - Calm Calm
Wind Gusts -- -- - -
Humidity - - - -
Pressure 30.95 in1048.1 mb 31.18 in1055.9 mb 30.46 in1031.5 mb -
Hour Temp Dew Point Humidity Winds Wind Gusts Pressure Precip Precip Rate Daily Precip Total
03:01 PM 43.7°F6.5°C -168.4°F-111.3°C - Calm Calm -- 30.95 in1048.1 mb 0.00 in0.0 mm 0.00 in0.0 mm 0.04 in1.0 mm
02:46 PM 43.9°F6.6°C -168.4°F-111.3°C - Calm Calm -- 30.95 in1048.1 mb 0.00 in0.0 mm 0.00 in0.0 mm 0.04 in1.0 mm
02:31 PM 43.7°F6.5°C -168.4°F-111.3°C - Calm Calm -- 30.95 in1048.1 mb 0.00 in0.0 mm 0.00 in0.0 mm 0.04 in1.0 mm
02:16 PM 44.1°F6.7°C -168.4°F-111.3°C - Calm Calm -- 30.95 in1048.1 mb 0.00 in0.0 mm 0.00 in0.0 mm 0.04 in1.0 mm
02:01 PM 44.6°F7.0°C -168.3°F-111.3°C - Calm Calm -- 30.96 in1048.4 mb 0.00 in0.0 mm 0.00 in0.0 mm 0.04 in1.0 mm
01:46 PM 44.6°F7.0°C -168.3°F-111.3°C - Calm Calm -- 30.96 in1048.4 mb 0.00 in0.0 mm 0.00 in0.0 mm 0.04 in1.0 mm
01:31 PM 44.2°F6.8°C -168.4°F-111.3°C - Calm Calm -- 30.97 in1048.8 mb 0.00 in0.0 mm 0.00 in0.0 mm 0.04 in1.0 mm
01:15 PM 44.8°F7.1°C -168.3°F-111.3°C - Calm Calm -- 31.00 in1049.8 mb 0.00 in0.0 mm 0.00 in0.0 mm 0.04 in1.0 mm
01:01 PM 44.8°F7.1°C -168.3°F-111.3°C - Calm Calm -- 31.00 in1049.8 mb 0.00 in0.0 mm 0.00 in0.0 mm 0.04 in1.0 mm
12:46 PM 45.0°F7.2°C -168.3°F-111.3°C - Calm Calm -- 31.00 in1049.8 mb 0.00 in0.0 mm 0.00 in0.0 mm 0.04 in1.0 mm
12:31 PM 44.8°F7.1°C -168.3°F-111.3°C - Calm Calm -- 31.00 in1049.8 mb 0.00 in0.0 mm 0.00 in0.0 mm 0.04 in1.0 mm
12:16 PM 45.3°F7.4°C -168.3°F-111.3°C - Calm Calm -- 31.01 in1050.1 mb 0.00 in0.0 mm 0.00 in0.0 mm 0.04 in1.0 mm
12:01 PM 45.5°F7.5°C -168.3°F-111.3°C - Calm Calm -- 31.02 in1050.5 mb 0.00 in0.0 mm 0.00 in0.0 mm 0.04 in1.0 mm
11:46 AM 45.3°F7.4°C -168.3°F-111.3°C - Calm Calm -- 31.01 in1050.1 mb 0.00 in0.0 mm 0.00 in0.0 mm 0.04 in1.0 mm
11:31 AM 45.9°F7.7°C -168.2°F-111.2°C - Calm Calm -- 31.01 in1050.1 mb 0.00 in0.0 mm 0.00 in0.0 mm 0.04 in1.0 mm
11:16 AM 45.1°F7.3°C -168.3°F-111.3°C - Calm Calm -- 31.00 in1049.8 mb 0.00 in0.0 mm 0.00 in0.0 mm 0.04 in1.0 mm
11:01 AM 45.0°F7.2°C -168.3°F-111.3°C - Calm Calm -- 30.99 in1049.4 mb 0.00 in0.0 mm 0.00 in0.0 mm 0.04 in1.0 mm
10:46 AM 45.7°F7.6°C -168.2°F-111.2°C - Calm Calm -- 30.99 in1049.4 mb 0.00 in0.0 mm 0.00 in0.0 mm 0.04 in1.0 mm
10:31 AM 46.4°F8.0°C -168.2°F-111.2°C - Calm Calm -- 30.98 in1049.1 mb 0.00 in0.0 mm 0.00 in0.0 mm 0.04 in1.0 mm
10:16 AM 48.2°F9.0°C -168.0°F-111.1°C - Calm Calm -- 30.97 in1048.8 mb 0.00 in0.0 mm 0.00 in0.0 mm 0.04 in1.0 mm
10:01 AM 50.0°F10.0°C -167.8°F-111.0°C - Calm Calm -- 30.98 in1049.1 mb 0.01 in0.3 mm 0.00 in0.0 mm 0.04 in1.0 mm
09:46 AM 52.0°F11.1°C -167.6°F-110.9°C - Calm Calm -- 30.99 in1049.4 mb 0.01 in0.3 mm 0.00 in0.0 mm 0.04 in1.0 mm
09:31 AM 52.0°F11.1°C -167.6°F-110.9°C - Calm Calm -- 31.02 in1050.5 mb 0.01 in0.3 mm 0.00 in0.0 mm 0.04 in1.0 mm
09:16 AM 47.5°F8.6°C -168.1°F-111.2°C - Calm Calm -- 31.08 in1052.5 mb 0.01 in0.3 mm 0.05 in1.3 mm 0.04 in1.0 mm
09:01 AM 44.2°F6.8°C -168.4°F-111.3°C - Calm Calm -- 31.12 in1053.8 mb 0.00 in0.0 mm 0.00 in0.0 mm 0.02 in0.5 mm
08:46 AM 43.2°F6.2°C -168.5°F-111.4°C - Calm Calm -- 31.16 in1055.2 mb 0.00 in0.0 mm 0.00 in0.0 mm 0.02 in0.5 mm
08:31 AM 42.6°F5.9°C -168.5°F-111.4°C - Calm Calm -- 31.18 in1055.9 mb 0.00 in0.0 mm 0.00 in0.0 mm 0.02 in0.5 mm
08:16 AM 42.1°F5.6°C -168.6°F-111.4°C - Calm Calm -- 31.18 in1055.9 mb 0.00 in0.0 mm 0.00 in0.0 mm 0.02 in0.5 mm
08:01 AM 42.3°F5.7°C -168.6°F-111.4°C - Calm Calm -- 31.18 in1055.9 mb 0.00 in0.0 mm 0.00 in0.0 mm 0.02 in0.5 mm
07:46 AM 41.9°F5.5°C -168.6°F-111.4°C - Calm Calm -- 31.17 in1055.5 mb 0.00 in0.0 mm 0.00 in0.0 mm 0.02 in0.5 mm
07:31 AM 42.1°F5.6°C -168.6°F-111.4°C - Calm Calm -- 31.17 in1055.5 mb 0.00 in0.0 mm 0.00 in0.0 mm 0.02 in0.5 mm
07:16 AM 42.4°F5.8°C -168.6°F-111.4°C - Calm Calm -- 31.15 in1054.9 mb 0.00 in0.0 mm 0.00 in0.0 mm 0.02 in0.5 mm
07:01 AM 42.4°F5.8°C -168.6°F-111.4°C - Calm Calm -- 31.15 in1054.9 mb 0.00 in0.0 mm 0.00 in0.0 mm 0.02 in0.5 mm
06:46 AM 42.6°F5.9°C -168.5°F-111.4°C - Calm Calm -- 31.14 in1054.5 mb 0.00 in0.0 mm 0.00 in0.0 mm 0.02 in0.5 mm
06:31 AM 42.4°F5.8°C -168.6°F-111.4°C - Calm Calm -- 31.14 in1054.5 mb 0.00 in0.0 mm 0.00 in0.0 mm 0.02 in0.5 mm
06:16 AM 42.8°F6.0°C -168.5°F-111.4°C - Calm Calm -- 31.13 in1054.2 mb 0.01 in0.3 mm 0.00 in0.0 mm 0.02 in0.5 mm
06:01 AM 42.8°F6.0°C -168.5°F-111.4°C - Calm Calm -- 31.13 in1054.2 mb 0.01 in0.3 mm 0.00 in0.0 mm 0.02 in0.5 mm
05:46 AM 43.0°F6.1°C -168.5°F-111.4°C - Calm Calm -- 31.12 in1053.8 mb 0.01 in0.3 mm 0.05 in1.3 mm 0.02 in0.5 mm
05:31 AM 43.2°F6.2°C -168.5°F-111.4°C - Calm Calm -- 31.07 in1052.2 mb 0.00 in0.0 mm 0.00 in0.0 mm 0.01 in0.3 mm
05:16 AM 43.2°F6.2°C -168.5°F-111.4°C - Calm Calm -- 31.07 in1052.2 mb 0.00 in0.0 mm 0.00 in0.0 mm 0.01 in0.3 mm
05:01 AM 43.7°F6.5°C -168.4°F-111.3°C - Calm Calm -- 31.05 in1051.5 mb 0.00 in0.0 mm 0.00 in0.0 mm 0.01 in0.3 mm
04:46 AM 44.1°F6.7°C -168.4°F-111.3°C - Calm Calm -- 31.04 in1051.1 mb 0.00 in0.0 mm 0.00 in0.0 mm 0.01 in0.3 mm
04:31 AM 43.9°F6.6°C -168.4°F-111.3°C - Calm Calm -- 31.02 in1050.5 mb 0.00 in0.0 mm 0.00 in0.0 mm 0.01 in0.3 mm
04:16 AM 44.2°F6.8°C -168.4°F-111.3°C - Calm Calm -- 31.00 in1049.8 mb 0.00 in0.0 mm 0.00 in0.0 mm 0.01 in0.3 mm
04:01 AM 44.4°F6.9°C -168.4°F-111.3°C - Calm Calm -- 30.98 in1049.1 mb 0.00 in0.0 mm 0.00 in0.0 mm 0.01 in0.3 mm
03:45 AM 45.1°F7.3°C -168.3°F-111.3°C - Calm Calm -- 30.91 in1046.7 mb 0.00 in0.0 mm 0.00 in0.0 mm 0.01 in0.3 mm
03:31 AM 45.1°F7.3°C -168.3°F-111.3°C - Calm Calm -- 30.91 in1046.7 mb 0.00 in0.0 mm 0.00 in0.0 mm 0.01 in0.3 mm
03:16 AM 45.9°F7.7°C -168.2°F-111.2°C - Calm Calm -- 30.89 in1046.1 mb 0.00 in0.0 mm 0.00 in0.0 mm 0.01 in0.3 mm
03:01 AM 46.6°F8.1°C -168.1°F-111.2°C - Calm Calm -- 30.87 in1045.4 mb 0.01 in0.3 mm 0.00 in0.0 mm 0.01 in0.3 mm
02:46 AM 47.3°F8.5°C -168.1°F-111.2°C - Calm Calm -- 30.84 in1044.4 mb 0.01 in0.3 mm 0.00 in0.0 mm 0.01 in0.3 mm
02:31 AM 48.0°F8.9°C -168.0°F-111.1°C - Calm Calm -- 30.82 in1043.7 mb 0.01 in0.3 mm 0.05 in1.3 mm 0.01 in0.3 mm
02:15 AM 50.0°F10.0°C -167.8°F-111.0°C - Calm Calm -- 30.76 in1041.7 mb 0.00 in0.0 mm 0.00 in0.0 mm 0.00 in0.0 mm
02:01 AM 50.0°F10.0°C -167.8°F-111.0°C - Calm Calm -- 30.76 in1041.7 mb 0.00 in0.0 mm 0.00 in0.0 mm 0.00 in0.0 mm
01:46 AM 51.1°F10.6°C -167.7°F-110.9°C - Calm Calm -- 30.74 in1041.0 mb 0.00 in0.0 mm 0.00 in0.0 mm 0.00 in0.0 mm
01:31 AM 52.3°F11.3°C -167.6°F-110.9°C - Calm Calm -- 30.70 in1039.6 mb 0.00 in0.0 mm 0.00 in0.0 mm 0.00 in0.0 mm
01:16 AM 52.3°F11.3°C -167.6°F-110.9°C - Calm Calm -- 30.65 in1037.9 mb 0.00 in0.0 mm 0.00 in0.0 mm 0.00 in0.0 mm
01:01 AM 53.1°F11.7°C -167.5°F-110.8°C - Calm Calm -- 30.61 in1036.6 mb 0.00 in0.0 mm 0.00 in0.0 mm 0.00 in0.0 mm
12:46 AM 53.2°F11.8°C -167.5°F-110.8°C - Calm Calm -- 30.58 in1035.6 mb 0.00 in0.0 mm 0.00 in0.0 mm 0.00 in0.0 mm
12:31 AM 54.5°F12.5°C -167.4°F-110.8°C - Calm Calm -- 30.54 in1034.2 mb 0.00 in0.0 mm 0.00 in0.0 mm 0.00 in0.0 mm
12:16 AM 54.9°F12.7°C -167.3°F-110.7°C - Calm Calm -- 30.49 in1032.5 mb 0.00 in0.0 mm 0.00 in0.0 mm 0.00 in0.0 mm
12:01 AM 55.2°F12.9°C -167.3°F-110.7°C - Calm Calm -- 30.46 in1031.5 mb 0.00 in0.0 mm 0.00 in0.0 mm 0.00 in0.0 mm